sensor_id;sensor_type;location;lat;lon;timestamp;P1;durP1;ratioP1;P2;durP2;ratioP2
71296;SDS011;59082;50.658;4.608;2022-07-29T00:00:28;3.20;;;1.10;;
71296;SDS011;59082;50.658;4.608;2022-07-29T00:02:54;1.93;;;1.07;;
71296;SDS011;59082;50.658;4.608;2022-07-29T00:05:19;6.15;;;1.38;;
71296;SDS011;59082;50.658;4.608;2022-07-29T00:07:45;2.53;;;1.97;;
71296;SDS011;59082;50.658;4.608;2022-07-29T00:10:10;5.07;;;0.90;;
71296;SDS011;59082;50.658;4.608;2022-07-29T00:12:36;4.07;;;1.37;;
71296;SDS011;59082;50.658;4.608;2022-07-29T00:15:02;2.08;;;1.27;;
71296;SDS011;59082;50.658;4.608;2022-07-29T00:17:28;4.67;;;1.23;;
71296;SDS011;59082;50.658;4.608;2022-07-29T00:19:54;1.88;;;0.90;;
71296;SDS011;59082;50.658;4.608;2022-07-29T00:22:19;5.30;;;1.17;;
71296;SDS011;59082;50.658;4.608;2022-07-29T00:24:46;5.05;;;1.23;;
71296;SDS011;59082;50.658;4.608;2022-07-29T00:27:13;4.20;;;1.60;;
71296;SDS011;59082;50.658;4.608;2022-07-29T00:29:39;2.45;;;1.02;;
71296;SDS011;59082;50.658;4.608;2022-07-29T00:32:04;3.03;;;1.57;;
71296;SDS011;59082;50.658;4.608;2022-07-29T00:34:30;4.35;;;1.40;;
71296;SDS011;59082;50.658;4.608;2022-07-29T00:37:14;4.18;;;1.55;;
71296;SDS011;59082;50.658;4.608;2022-07-29T00:39:40;3.87;;;1.30;;
71296;SDS011;59082;50.658;4.608;2022-07-29T00:42:05;2.05;;;1.58;;
71296;SDS011;59082;50.658;4.608;2022-07-29T00:44:35;4.47;;;1.23;;
71296;SDS011;59082;50.658;4.608;2022-07-29T00:47:04;2.15;;;1.55;;
71296;SDS011;59082;50.658;4.608;2022-07-29T00:49:31;3.42;;;1.92;;
71296;SDS011;59082;50.658;4.608;2022-07-29T00:51:56;5.38;;;1.50;;
71296;SDS011;59082;50.658;4.608;2022-07-29T00:54:22;3.47;;;1.00;;
71296;SDS011;59082;50.658;4.608;2022-07-29T00:56:48;2.78;;;1.40;;
71296;SDS011;59082;50.658;4.608;2022-07-29T00:59:14;2.22;;;1.40;;
71296;SDS011;59082;50.658;4.608;2022-07-29T01:01:40;3.60;;;1.90;;
71296;SDS011;59082;50.658;4.608;2022-07-29T01:04:05;2.37;;;1.20;;
71296;SDS011;59082;50.658;4.608;2022-07-29T01:06:32;5.45;;;1.40;;
71296;SDS011;59082;50.658;4.608;2022-07-29T01:08:58;2.08;;;1.05;;
71296;SDS011;59082;50.658;4.608;2022-07-29T01:11:24;3.88;;;1.10;;
71296;SDS011;59082;50.658;4.608;2022-07-29T01:13:50;4.10;;;1.50;;
71296;SDS011;59082;50.658;4.608;2022-07-29T01:16:25;3.13;;;1.13;;
71296;SDS011;59082;50.658;4.608;2022-07-29T01:18:59;3.83;;;1.38;;
71296;SDS011;59082;50.658;4.608;2022-07-29T01:21:53;1.83;;;1.27;;
71296;SDS011;59082;50.658;4.608;2022-07-29T01:30:15;2.87;;;1.37;;
71296;SDS011;59082;50.658;4.608;2022-07-29T01:32:41;2.95;;;1.33;;
71296;SDS011;59082;50.658;4.608;2022-07-29T01:35:17;1.20;;;0.80;;
71296;SDS011;59082;50.658;4.608;2022-07-29T01:37:55;3.85;;;1.02;;
71296;SDS011;59082;50.658;4.608;2022-07-29T01:43:18;5.10;;;1.30;;
71296;SDS011;59082;50.658;4.608;2022-07-29T01:46:05;3.97;;;1.38;;
71296;SDS011;59082;50.658;4.608;2022-07-29T01:48:39;1.67;;;1.20;;
71296;SDS011;59082;50.658;4.608;2022-07-29T01:51:24;2.58;;;2.05;;
71296;SDS011;59082;50.658;4.608;2022-07-29T01:53:55;4.25;;;1.58;;
71296;SDS011;59082;50.658;4.608;2022-07-29T01:56:24;3.17;;;1.53;;
71296;SDS011;59082;50.658;4.608;2022-07-29T01:58:54;2.55;;;1.63;;
71296;SDS011;59082;50.658;4.608;2022-07-29T02:01:22;3.53;;;2.05;;
71296;SDS011;59082;50.658;4.608;2022-07-29T02:03:50;4.57;;;1.40;;
71296;SDS011;59082;50.658;4.608;2022-07-29T02:06:18;5.25;;;1.70;;
71296;SDS011;59082;50.658;4.608;2022-07-29T02:08:46;2.63;;;1.23;;
71296;SDS011;59082;50.658;4.608;2022-07-29T02:11:14;3.22;;;1.67;;
71296;SDS011;59082;50.658;4.608;2022-07-29T02:13:39;3.63;;;1.83;;
71296;SDS011;59082;50.658;4.608;2022-07-29T02:16:07;4.97;;;1.73;;
71296;SDS011;59082;50.658;4.608;2022-07-29T02:18:35;2.60;;;1.42;;
71296;SDS011;59082;50.658;4.608;2022-07-29T02:21:04;3.30;;;2.25;;
71296;SDS011;59082;50.658;4.608;2022-07-29T02:23:30;3.22;;;1.77;;
71296;SDS011;59082;50.658;4.608;2022-07-29T02:25:57;4.55;;;2.22;;
71296;SDS011;59082;50.658;4.608;2022-07-29T02:28:25;2.03;;;1.50;;
71296;SDS011;59082;50.658;4.608;2022-07-29T02:30:54;3.22;;;2.75;;
71296;SDS011;59082;50.658;4.608;2022-07-29T02:33:22;5.88;;;2.03;;
71296;SDS011;59082;50.658;4.608;2022-07-29T02:35:49;4.95;;;2.22;;
71296;SDS011;59082;50.658;4.608;2022-07-29T02:38:16;3.78;;;1.70;;
71296;SDS011;59082;50.658;4.608;2022-07-29T02:41:03;3.47;;;1.60;;
71296;SDS011;59082;50.658;4.608;2022-07-29T02:43:32;2.35;;;1.73;;
71296;SDS011;59082;50.658;4.608;2022-07-29T02:46:00;7.40;;;1.73;;
71296;SDS011;59082;50.658;4.608;2022-07-29T02:48:37;1.83;;;1.45;;
71296;SDS011;59082;50.658;4.608;2022-07-29T02:51:07;2.28;;;1.30;;
71296;SDS011;59082;50.658;4.608;2022-07-29T02:53:37;5.03;;;1.40;;
71296;SDS011;59082;50.658;4.608;2022-07-29T02:56:13;3.05;;;1.38;;
71296;SDS011;59082;50.658;4.608;2022-07-29T02:58:42;3.00;;;2.05;;
71296;SDS011;59082;50.658;4.608;2022-07-29T03:01:13;3.80;;;1.67;;
71296;SDS011;59082;50.658;4.608;2022-07-29T03:03:42;3.75;;;1.60;;
71296;SDS011;59082;50.658;4.608;2022-07-29T03:06:10;2.73;;;1.47;;
71296;SDS011;59082;50.658;4.608;2022-07-29T03:08:38;2.60;;;2.00;;
71296;SDS011;59082;50.658;4.608;2022-07-29T03:11:04;3.90;;;1.63;;
71296;SDS011;59082;50.658;4.608;2022-07-29T03:13:32;3.40;;;1.80;;
71296;SDS011;59082;50.658;4.608;2022-07-29T03:15:58;2.83;;;1.75;;
71296;SDS011;59082;50.658;4.608;2022-07-29T03:18:24;4.30;;;1.73;;
71296;SDS011;59082;50.658;4.608;2022-07-29T03:20:50;3.45;;;2.55;;
71296;SDS011;59082;50.658;4.608;2022-07-29T03:23:19;4.80;;;2.13;;
71296;SDS011;59082;50.658;4.608;2022-07-29T03:25:48;5.40;;;2.53;;
71296;SDS011;59082;50.658;4.608;2022-07-29T03:28:14;4.73;;;2.33;;
71296;SDS011;59082;50.658;4.608;2022-07-29T03:30:39;4.93;;;1.73;;
71296;SDS011;59082;50.658;4.608;2022-07-29T03:33:05;4.00;;;2.50;;
71296;SDS011;59082;50.658;4.608;2022-07-29T03:35:31;4.82;;;2.97;;
71296;SDS011;59082;50.658;4.608;2022-07-29T03:37:57;2.63;;;2.43;;
71296;SDS011;59082;50.658;4.608;2022-07-29T03:40:25;5.95;;;2.60;;
71296;SDS011;59082;50.658;4.608;2022-07-29T03:42:59;4.10;;;2.17;;
71296;SDS011;59082;50.658;4.608;2022-07-29T03:45:27;4.53;;;2.40;;
71296;SDS011;59082;50.658;4.608;2022-07-29T03:47:56;4.72;;;2.40;;
71296;SDS011;59082;50.658;4.608;2022-07-29T03:50:26;3.23;;;2.40;;
71296;SDS011;59082;50.658;4.608;2022-07-29T03:52:53;3.58;;;2.10;;
71296;SDS011;59082;50.658;4.608;2022-07-29T03:55:19;3.33;;;2.55;;
71296;SDS011;59082;50.658;4.608;2022-07-29T03:57:45;4.47;;;2.30;;
71296;SDS011;59082;50.658;4.608;2022-07-29T04:00:11;2.92;;;1.88;;
71296;SDS011;59082;50.658;4.608;2022-07-29T04:02:37;3.95;;;2.30;;
71296;SDS011;59082;50.658;4.608;2022-07-29T04:05:05;3.33;;;2.40;;
71296;SDS011;59082;50.658;4.608;2022-07-29T04:07:36;7.72;;;2.60;;
71296;SDS011;59082;50.658;4.608;2022-07-29T04:10:02;4.80;;;2.30;;
71296;SDS011;59082;50.658;4.608;2022-07-29T04:12:27;5.13;;;2.33;;
71296;SDS011;59082;50.658;4.608;2022-07-29T04:14:53;10.03;;;2.60;;
71296;SDS011;59082;50.658;4.608;2022-07-29T04:17:18;4.03;;;1.92;;
71296;SDS011;59082;50.658;4.608;2022-07-29T04:19:44;4.60;;;2.60;;
71296;SDS011;59082;50.658;4.608;2022-07-29T04:22:10;6.25;;;2.88;;
71296;SDS011;59082;50.658;4.608;2022-07-29T04:24:35;2.27;;;2.00;;
71296;SDS011;59082;50.658;4.608;2022-07-29T04:27:01;5.07;;;2.00;;
71296;SDS011;59082;50.658;4.608;2022-07-29T04:29:26;5.65;;;3.05;;
71296;SDS011;59082;50.658;4.608;2022-07-29T04:31:52;4.53;;;2.70;;
71296;SDS011;59082;50.658;4.608;2022-07-29T04:34:17;6.20;;;2.67;;
71296;SDS011;59082;50.658;4.608;2022-07-29T04:36:43;3.47;;;2.88;;
71296;SDS011;59082;50.658;4.608;2022-07-29T04:39:08;4.70;;;2.40;;
71296;SDS011;59082;50.658;4.608;2022-07-29T04:41:35;5.72;;;2.55;;
71296;SDS011;59082;50.658;4.608;2022-07-29T04:44:00;4.40;;;2.80;;
71296;SDS011;59082;50.658;4.608;2022-07-29T04:46:29;4.95;;;2.50;;
71296;SDS011;59082;50.658;4.608;2022-07-29T04:48:55;3.77;;;2.83;;
71296;SDS011;59082;50.658;4.608;2022-07-29T04:51:20;4.97;;;2.83;;
71296;SDS011;59082;50.658;4.608;2022-07-29T04:53:46;4.53;;;1.92;;
71296;SDS011;59082;50.658;4.608;2022-07-29T04:56:12;6.73;;;2.57;;
71296;SDS011;59082;50.658;4.608;2022-07-29T04:58:37;6.53;;;2.20;;
71296;SDS011;59082;50.658;4.608;2022-07-29T05:01:03;5.23;;;2.93;;
71296;SDS011;59082;50.658;4.608;2022-07-29T05:03:28;4.10;;;2.63;;
71296;SDS011;59082;50.658;4.608;2022-07-29T05:05:54;3.28;;;2.60;;
71296;SDS011;59082;50.658;4.608;2022-07-29T05:08:19;7.17;;;2.90;;
71296;SDS011;59082;50.658;4.608;2022-07-29T05:10:45;5.10;;;2.60;;
71296;SDS011;59082;50.658;4.608;2022-07-29T05:13:11;9.27;;;2.83;;
71296;SDS011;59082;50.658;4.608;2022-07-29T05:15:36;5.80;;;2.77;;
71296;SDS011;59082;50.658;4.608;2022-07-29T05:18:02;6.88;;;3.40;;
71296;SDS011;59082;50.658;4.608;2022-07-29T05:20:29;5.03;;;3.63;;
71296;SDS011;59082;50.658;4.608;2022-07-29T05:22:58;3.90;;;3.45;;
71296;SDS011;59082;50.658;4.608;2022-07-29T05:25:24;7.18;;;3.53;;
71296;SDS011;59082;50.658;4.608;2022-07-29T05:27:51;3.67;;;2.77;;
71296;SDS011;59082;50.658;4.608;2022-07-29T05:30:17;4.32;;;2.70;;
71296;SDS011;59082;50.658;4.608;2022-07-29T05:32:43;4.30;;;3.60;;
71296;SDS011;59082;50.658;4.608;2022-07-29T05:35:09;3.53;;;2.70;;
71296;SDS011;59082;50.658;4.608;2022-07-29T05:37:36;3.40;;;3.07;;
71296;SDS011;59082;50.658;4.608;2022-07-29T05:40:02;5.05;;;3.35;;
71296;SDS011;59082;50.658;4.608;2022-07-29T05:42:29;6.53;;;3.37;;
71296;SDS011;59082;50.658;4.608;2022-07-29T05:44:54;5.13;;;2.95;;
71296;SDS011;59082;50.658;4.608;2022-07-29T05:47:20;6.68;;;3.10;;
71296;SDS011;59082;50.658;4.608;2022-07-29T05:49:46;4.70;;;3.70;;
71296;SDS011;59082;50.658;4.608;2022-07-29T05:52:12;4.38;;;3.05;;
71296;SDS011;59082;50.658;4.608;2022-07-29T05:54:38;3.95;;;2.75;;
71296;SDS011;59082;50.658;4.608;2022-07-29T05:57:04;5.80;;;2.80;;
71296;SDS011;59082;50.658;4.608;2022-07-29T05:59:30;4.97;;;2.67;;
71296;SDS011;59082;50.658;4.608;2022-07-29T06:02:00;4.03;;;3.13;;
71296;SDS011;59082;50.658;4.608;2022-07-29T06:04:25;5.90;;;3.60;;
71296;SDS011;59082;50.658;4.608;2022-07-29T06:06:51;5.00;;;2.70;;
71296;SDS011;59082;50.658;4.608;2022-07-29T06:09:16;3.90;;;3.07;;
71296;SDS011;59082;50.658;4.608;2022-07-29T06:11:42;6.45;;;3.00;;
71296;SDS011;59082;50.658;4.608;2022-07-29T06:14:07;4.67;;;3.00;;
71296;SDS011;59082;50.658;4.608;2022-07-29T06:16:33;6.63;;;3.50;;
71296;SDS011;59082;50.658;4.608;2022-07-29T06:18:58;5.13;;;2.97;;
71296;SDS011;59082;50.658;4.608;2022-07-29T06:21:24;5.00;;;3.60;;
71296;SDS011;59082;50.658;4.608;2022-07-29T06:23:50;4.83;;;2.50;;
71296;SDS011;59082;50.658;4.608;2022-07-29T06:26:15;3.60;;;2.55;;
71296;SDS011;59082;50.658;4.608;2022-07-29T06:28:41;5.27;;;3.20;;
71296;SDS011;59082;50.658;4.608;2022-07-29T06:31:06;5.93;;;3.50;;
71296;SDS011;59082;50.658;4.608;2022-07-29T06:33:32;5.17;;;4.33;;
71296;SDS011;59082;50.658;4.608;2022-07-29T06:35:58;4.93;;;3.85;;
71296;SDS011;59082;50.658;4.608;2022-07-29T06:38:24;6.70;;;3.50;;
71296;SDS011;59082;50.658;4.608;2022-07-29T06:40:50;6.80;;;3.37;;
71296;SDS011;59082;50.658;4.608;2022-07-29T06:43:25;5.47;;;3.38;;
71296;SDS011;59082;50.658;4.608;2022-07-29T06:45:57;3.92;;;2.80;;
71296;SDS011;59082;50.658;4.608;2022-07-29T06:48:25;4.90;;;3.20;;
71296;SDS011;59082;50.658;4.608;2022-07-29T06:50:50;6.97;;;3.38;;
71296;SDS011;59082;50.658;4.608;2022-07-29T06:53:16;5.43;;;3.80;;
71296;SDS011;59082;50.658;4.608;2022-07-29T06:55:41;4.63;;;3.40;;
71296;SDS011;59082;50.658;4.608;2022-07-29T06:58:07;5.35;;;3.40;;
71296;SDS011;59082;50.658;4.608;2022-07-29T07:00:34;7.55;;;3.63;;
71296;SDS011;59082;50.658;4.608;2022-07-29T07:03:00;4.13;;;3.00;;
71296;SDS011;59082;50.658;4.608;2022-07-29T07:05:26;6.03;;;3.53;;
71296;SDS011;59082;50.658;4.608;2022-07-29T07:07:51;3.63;;;3.00;;
71296;SDS011;59082;50.658;4.608;2022-07-29T07:10:17;4.10;;;3.00;;
71296;SDS011;59082;50.658;4.608;2022-07-29T07:12:43;5.07;;;3.15;;
71296;SDS011;59082;50.658;4.608;2022-07-29T07:15:08;7.77;;;3.40;;
71296;SDS011;59082;50.658;4.608;2022-07-29T07:17:34;5.35;;;3.10;;
71296;SDS011;59082;50.658;4.608;2022-07-29T07:20:00;4.07;;;3.37;;
71296;SDS011;59082;50.658;4.608;2022-07-29T07:22:25;5.05;;;3.40;;
71296;SDS011;59082;50.658;4.608;2022-07-29T07:24:51;6.03;;;3.10;;
71296;SDS011;59082;50.658;4.608;2022-07-29T07:27:16;4.73;;;2.80;;
71296;SDS011;59082;50.658;4.608;2022-07-29T07:29:42;5.47;;;2.67;;
71296;SDS011;59082;50.658;4.608;2022-07-29T07:32:08;4.57;;;2.70;;
71296;SDS011;59082;50.658;4.608;2022-07-29T07:34:33;4.63;;;2.78;;
71296;SDS011;59082;50.658;4.608;2022-07-29T07:36:59;4.63;;;3.13;;
71296;SDS011;59082;50.658;4.608;2022-07-29T07:39:24;4.63;;;3.03;;
71296;SDS011;59082;50.658;4.608;2022-07-29T07:41:51;3.53;;;2.50;;
71296;SDS011;59082;50.658;4.608;2022-07-29T07:44:17;5.57;;;2.53;;
71296;SDS011;59082;50.658;4.608;2022-07-29T07:46:42;3.97;;;2.60;;
71296;SDS011;59082;50.658;4.608;2022-07-29T07:49:09;4.13;;;2.40;;
71296;SDS011;59082;50.658;4.608;2022-07-29T07:51:35;3.15;;;2.60;;
71296;SDS011;59082;50.658;4.608;2022-07-29T07:54:02;6.63;;;3.13;;
71296;SDS011;59082;50.658;4.608;2022-07-29T07:56:28;4.63;;;2.50;;
71296;SDS011;59082;50.658;4.608;2022-07-29T07:58:53;5.43;;;3.20;;
71296;SDS011;59082;50.658;4.608;2022-07-29T08:01:19;3.30;;;2.75;;
71296;SDS011;59082;50.658;4.608;2022-07-29T08:03:48;4.07;;;2.63;;
71296;SDS011;59082;50.658;4.608;2022-07-29T08:06:14;5.00;;;2.40;;
71296;SDS011;59082;50.658;4.608;2022-07-29T08:08:40;3.05;;;2.60;;
71296;SDS011;59082;50.658;4.608;2022-07-29T08:11:06;3.47;;;2.25;;
71296;SDS011;59082;50.658;4.608;2022-07-29T08:13:32;4.67;;;3.10;;
71296;SDS011;59082;50.658;4.608;2022-07-29T08:15:58;3.83;;;2.10;;
71296;SDS011;59082;50.658;4.608;2022-07-29T08:18:26;6.10;;;2.40;;
71296;SDS011;59082;50.658;4.608;2022-07-29T08:20:54;4.85;;;2.83;;
71296;SDS011;59082;50.658;4.608;2022-07-29T08:23:21;6.60;;;2.33;;
71296;SDS011;59082;50.658;4.608;2022-07-29T08:25:48;6.35;;;2.17;;
71296;SDS011;59082;50.658;4.608;2022-07-29T08:28:14;5.00;;;1.92;;
71296;SDS011;59082;50.658;4.608;2022-07-29T08:30:40;2.72;;;2.00;;
71296;SDS011;59082;50.658;4.608;2022-07-29T08:33:06;3.53;;;2.53;;
71296;SDS011;59082;50.658;4.608;2022-07-29T08:35:31;2.33;;;1.97;;
71296;SDS011;59082;50.658;4.608;2022-07-29T08:37:57;2.23;;;1.60;;
71296;SDS011;59082;50.658;4.608;2022-07-29T08:40:23;3.25;;;1.80;;
71296;SDS011;59082;50.658;4.608;2022-07-29T08:42:49;2.90;;;2.13;;
71296;SDS011;59082;50.658;4.608;2022-07-29T08:45:15;5.53;;;2.05;;
71296;SDS011;59082;50.658;4.608;2022-07-29T08:47:41;5.00;;;1.83;;
71296;SDS011;59082;50.658;4.608;2022-07-29T08:50:09;2.97;;;1.80;;
71296;SDS011;59082;50.658;4.608;2022-07-29T08:52:37;4.07;;;2.00;;
71296;SDS011;59082;50.658;4.608;2022-07-29T08:55:05;2.72;;;1.80;;
71296;SDS011;59082;50.658;4.608;2022-07-29T08:57:32;5.20;;;1.90;;
71296;SDS011;59082;50.658;4.608;2022-07-29T08:59:59;4.70;;;2.13;;
71296;SDS011;59082;50.658;4.608;2022-07-29T09:02:26;3.03;;;1.70;;
71296;SDS011;59082;50.658;4.608;2022-07-29T09:04:54;5.60;;;2.10;;
71296;SDS011;59082;50.658;4.608;2022-07-29T09:07:24;2.35;;;1.60;;
71296;SDS011;59082;50.658;4.608;2022-07-29T09:09:50;4.50;;;1.90;;
71296;SDS011;59082;50.658;4.608;2022-07-29T09:12:15;3.63;;;1.70;;
71296;SDS011;59082;50.658;4.608;2022-07-29T09:14:41;3.67;;;1.73;;
71296;SDS011;59082;50.658;4.608;2022-07-29T09:17:07;4.37;;;1.93;;
71296;SDS011;59082;50.658;4.608;2022-07-29T09:19:33;4.55;;;1.48;;
71296;SDS011;59082;50.658;4.608;2022-07-29T09:22:01;3.63;;;1.73;;
71296;SDS011;59082;50.658;4.608;2022-07-29T09:26:59;3.73;;;1.60;;
71296;SDS011;59082;50.658;4.608;2022-07-29T09:29:24;2.25;;;1.67;;
71296;SDS011;59082;50.658;4.608;2022-07-29T09:31:51;4.13;;;1.40;;
71296;SDS011;59082;50.658;4.608;2022-07-29T09:34:22;2.33;;;1.10;;
71296;SDS011;59082;50.658;4.608;2022-07-29T09:36:53;2.75;;;1.48;;
71296;SDS011;59082;50.658;4.608;2022-07-29T09:39:33;3.70;;;1.92;;
71296;SDS011;59082;50.658;4.608;2022-07-29T09:42:03;2.37;;;1.60;;
71296;SDS011;59082;50.658;4.608;2022-07-29T09:44:40;3.28;;;1.58;;
71296;SDS011;59082;50.658;4.608;2022-07-29T09:47:16;2.72;;;1.50;;
71296;SDS011;59082;50.658;4.608;2022-07-29T09:49:50;1.55;;;0.98;;
71296;SDS011;59082;50.658;4.608;2022-07-29T09:52:20;1.75;;;1.40;;
71296;SDS011;59082;50.658;4.608;2022-07-29T09:54:47;2.90;;;1.43;;
71296;SDS011;59082;50.658;4.608;2022-07-29T09:57:23;2.33;;;1.17;;
71296;SDS011;59082;50.658;4.608;2022-07-29T09:59:58;1.77;;;0.85;;
71296;SDS011;59082;50.658;4.608;2022-07-29T10:02:31;6.07;;;1.50;;
71296;SDS011;59082;50.658;4.608;2022-07-29T10:04:59;3.67;;;1.17;;
71296;SDS011;59082;50.658;4.608;2022-07-29T10:07:25;2.63;;;1.00;;
71296;SDS011;59082;50.658;4.608;2022-07-29T10:09:55;2.03;;;1.23;;
71296;SDS011;59082;50.658;4.608;2022-07-29T10:12:22;2.35;;;0.82;;
71296;SDS011;59082;50.658;4.608;2022-07-29T10:14:48;1.17;;;0.95;;
71296;SDS011;59082;50.658;4.608;2022-07-29T10:17:15;2.90;;;1.20;;
71296;SDS011;59082;50.658;4.608;2022-07-29T10:19:41;1.60;;;1.20;;
71296;SDS011;59082;50.658;4.608;2022-07-29T10:22:08;1.80;;;1.40;;
71296;SDS011;59082;50.658;4.608;2022-07-29T10:24:35;3.30;;;1.00;;
71296;SDS011;59082;50.658;4.608;2022-07-29T10:27:03;3.03;;;1.30;;
71296;SDS011;59082;50.658;4.608;2022-07-29T10:29:30;2.50;;;1.23;;
71296;SDS011;59082;50.658;4.608;2022-07-29T10:37:59;2.08;;;0.82;;
71296;SDS011;59082;50.658;4.608;2022-07-29T10:44:02;3.55;;;1.13;;
71296;SDS011;59082;50.658;4.608;2022-07-29T10:46:37;3.00;;;1.17;;
71296;SDS011;59082;50.658;4.608;2022-07-29T10:49:05;2.40;;;1.05;;
71296;SDS011;59082;50.658;4.608;2022-07-29T10:59:45;3.58;;;1.33;;
71296;SDS011;59082;50.658;4.608;2022-07-29T11:07:22;2.93;;;0.90;;
71296;SDS011;59082;50.658;4.608;2022-07-29T11:15:03;6.15;;;1.55;;
71296;SDS011;59082;50.658;4.608;2022-07-29T11:22:58;2.97;;;1.52;;
71296;SDS011;59082;50.658;4.608;2022-07-29T11:25:24;3.20;;;1.23;;
71296;SDS011;59082;50.658;4.608;2022-07-29T11:27:51;2.63;;;1.40;;
71296;SDS011;59082;50.658;4.608;2022-07-29T11:30:17;1.98;;;1.30;;
71296;SDS011;59082;50.658;4.608;2022-07-29T11:32:43;3.10;;;1.50;;
71296;SDS011;59082;50.658;4.608;2022-07-29T11:37:35;3.92;;;0.75;;
71296;SDS011;59082;50.658;4.608;2022-07-29T11:45:02;5.50;;;2.00;;
71296;SDS011;59082;50.658;4.608;2022-07-29T11:47:33;3.30;;;2.17;;
71296;SDS011;59082;50.658;4.608;2022-07-29T11:50:01;4.10;;;2.10;;
71296;SDS011;59082;50.658;4.608;2022-07-29T11:55:18;2.78;;;1.50;;
71296;SDS011;59082;50.658;4.608;2022-07-29T11:57:45;4.72;;;2.03;;
71296;SDS011;59082;50.658;4.608;2022-07-29T12:00:23;2.80;;;1.80;;
71296;SDS011;59082;50.658;4.608;2022-07-29T12:02:51;3.03;;;1.50;;
71296;SDS011;59082;50.658;4.608;2022-07-29T12:05:17;2.90;;;0.77;;
71296;SDS011;59082;50.658;4.608;2022-07-29T12:07:44;4.65;;;0.98;;
71296;SDS011;59082;50.658;4.608;2022-07-29T12:10:10;5.85;;;1.30;;
71296;SDS011;59082;50.658;4.608;2022-07-29T12:12:36;1.60;;;0.60;;
71296;SDS011;59082;50.658;4.608;2022-07-29T12:15:10;3.47;;;1.48;;
71296;SDS011;59082;50.658;4.608;2022-07-29T12:17:49;3.47;;;2.25;;
71296;SDS011;59082;50.658;4.608;2022-07-29T12:20:35;6.40;;;2.00;;
71296;SDS011;59082;50.658;4.608;2022-07-29T12:23:03;1.85;;;0.60;;
71296;SDS011;59082;50.658;4.608;2022-07-29T12:25:32;2.60;;;0.70;;
71296;SDS011;59082;50.658;4.608;2022-07-29T12:27:59;1.80;;;0.90;;
71296;SDS011;59082;50.658;4.608;2022-07-29T12:30:45;4.72;;;1.60;;
71296;SDS011;59082;50.658;4.608;2022-07-29T12:33:31;4.37;;;2.17;;
71296;SDS011;59082;50.658;4.608;2022-07-29T12:35:58;2.47;;;2.17;;
71296;SDS011;59082;50.658;4.608;2022-07-29T12:38:25;3.53;;;1.55;;
71296;SDS011;59082;50.658;4.608;2022-07-29T12:40:51;1.73;;;0.70;;
71296;SDS011;59082;50.658;4.608;2022-07-29T12:43:19;2.58;;;0.65;;
71296;SDS011;59082;50.658;4.608;2022-07-29T12:45:47;3.07;;;1.00;;
71296;SDS011;59082;50.658;4.608;2022-07-29T12:48:15;1.83;;;0.65;;
71296;SDS011;59082;50.658;4.608;2022-07-29T12:50:51;3.13;;;1.00;;
71296;SDS011;59082;50.658;4.608;2022-07-29T12:53:21;2.80;;;1.20;;
71296;SDS011;59082;50.658;4.608;2022-07-29T12:55:48;6.43;;;1.33;;
71296;SDS011;59082;50.658;4.608;2022-07-29T12:58:35;4.15;;;1.77;;
71296;SDS011;59082;50.658;4.608;2022-07-29T13:01:09;2.63;;;1.63;;
71296;SDS011;59082;50.658;4.608;2022-07-29T13:03:53;3.38;;;2.42;;
71296;SDS011;59082;50.658;4.608;2022-07-29T13:06:32;3.47;;;2.00;;
71296;SDS011;59082;50.658;4.608;2022-07-29T13:09:09;4.68;;;2.45;;
71296;SDS011;59082;50.658;4.608;2022-07-29T13:11:45;2.90;;;1.90;;
71296;SDS011;59082;50.658;4.608;2022-07-29T13:14:31;4.03;;;1.55;;
71296;SDS011;59082;50.658;4.608;2022-07-29T13:17:04;3.25;;;1.67;;
71296;SDS011;59082;50.658;4.608;2022-07-29T13:22:06;2.78;;;1.70;;
71296;SDS011;59082;50.658;4.608;2022-07-29T13:24:33;1.77;;;1.50;;
71296;SDS011;59082;50.658;4.608;2022-07-29T13:26:59;3.35;;;2.00;;
71296;SDS011;59082;50.658;4.608;2022-07-29T13:29:24;4.83;;;2.13;;
71296;SDS011;59082;50.658;4.608;2022-07-29T13:31:51;3.38;;;1.73;;
71296;SDS011;59082;50.658;4.608;2022-07-29T13:34:17;4.80;;;1.75;;
71296;SDS011;59082;50.658;4.608;2022-07-29T13:36:44;5.05;;;2.58;;
71296;SDS011;59082;50.658;4.608;2022-07-29T13:39:10;5.73;;;1.90;;
71296;SDS011;59082;50.658;4.608;2022-07-29T13:41:36;2.90;;;0.88;;
71296;SDS011;59082;50.658;4.608;2022-07-29T13:44:02;4.70;;;1.23;;
71296;SDS011;59082;50.658;4.608;2022-07-29T13:46:27;5.93;;;3.13;;
71296;SDS011;59082;50.658;4.608;2022-07-29T13:48:53;7.33;;;3.50;;
71296;SDS011;59082;50.658;4.608;2022-07-29T13:51:18;4.50;;;3.00;;
71296;SDS011;59082;50.658;4.608;2022-07-29T13:53:44;5.22;;;1.27;;
71296;SDS011;59082;50.658;4.608;2022-07-29T13:56:09;3.93;;;0.93;;
71296;SDS011;59082;50.658;4.608;2022-07-29T13:58:35;4.67;;;1.87;;
71296;SDS011;59082;50.658;4.608;2022-07-29T14:01:01;4.85;;;1.27;;
71296;SDS011;59082;50.658;4.608;2022-07-29T14:03:26;4.23;;;1.40;;
71296;SDS011;59082;50.658;4.608;2022-07-29T14:05:52;4.20;;;1.50;;
71296;SDS011;59082;50.658;4.608;2022-07-29T14:08:18;3.42;;;1.55;;
71296;SDS011;59082;50.658;4.608;2022-07-29T14:10:44;5.00;;;1.53;;
71296;SDS011;59082;50.658;4.608;2022-07-29T14:13:09;3.53;;;1.55;;
71296;SDS011;59082;50.658;4.608;2022-07-29T14:15:35;4.47;;;1.60;;
71296;SDS011;59082;50.658;4.608;2022-07-29T14:18:00;6.10;;;2.20;;
71296;SDS011;59082;50.658;4.608;2022-07-29T14:20:26;3.42;;;3.13;;
71296;SDS011;59082;50.658;4.608;2022-07-29T14:22:54;7.13;;;3.65;;
71296;SDS011;59082;50.658;4.608;2022-07-29T14:25:21;5.40;;;3.17;;
71296;SDS011;59082;50.658;4.608;2022-07-29T14:27:47;2.88;;;1.83;;
71296;SDS011;59082;50.658;4.608;2022-07-29T14:30:13;3.45;;;2.00;;
71296;SDS011;59082;50.658;4.608;2022-07-29T14:32:38;6.80;;;2.30;;
71296;SDS011;59082;50.658;4.608;2022-07-29T14:35:04;4.70;;;2.28;;
71296;SDS011;59082;50.658;4.608;2022-07-29T14:37:30;5.23;;;1.63;;
71296;SDS011;59082;50.658;4.608;2022-07-29T14:39:56;7.68;;;1.67;;
71296;SDS011;59082;50.658;4.608;2022-07-29T14:42:24;5.60;;;1.63;;
71296;SDS011;59082;50.658;4.608;2022-07-29T14:44:50;6.40;;;2.00;;
71296;SDS011;59082;50.658;4.608;2022-07-29T14:47:15;4.70;;;4.18;;
71296;SDS011;59082;50.658;4.608;2022-07-29T14:49:41;4.53;;;4.13;;
71296;SDS011;59082;50.658;4.608;2022-07-29T14:52:06;4.47;;;1.50;;
71296;SDS011;59082;50.658;4.608;2022-07-29T14:54:32;10.10;;;1.80;;
71296;SDS011;59082;50.658;4.608;2022-07-29T14:56:57;6.90;;;1.90;;
71296;SDS011;59082;50.658;4.608;2022-07-29T14:59:23;5.38;;;1.50;;
71296;SDS011;59082;50.658;4.608;2022-07-29T15:01:49;5.23;;;1.70;;
71296;SDS011;59082;50.658;4.608;2022-07-29T15:04:14;5.40;;;4.78;;
71296;SDS011;59082;50.658;4.608;2022-07-29T15:06:40;5.27;;;4.77;;
71296;SDS011;59082;50.658;4.608;2022-07-29T15:09:05;3.87;;;2.20;;
71296;SDS011;59082;50.658;4.608;2022-07-29T15:11:31;3.20;;;1.42;;
71296;SDS011;59082;50.658;4.608;2022-07-29T15:13:57;3.53;;;1.30;;
71296;SDS011;59082;50.658;4.608;2022-07-29T15:16:22;2.63;;;1.38;;
71296;SDS011;59082;50.658;4.608;2022-07-29T15:18:48;3.27;;;1.20;;
71296;SDS011;59082;50.658;4.608;2022-07-29T15:21:14;3.50;;;0.85;;
71296;SDS011;59082;50.658;4.608;2022-07-29T15:23:40;3.63;;;1.20;;
71296;SDS011;59082;50.658;4.608;2022-07-29T15:26:06;2.70;;;1.53;;
71296;SDS011;59082;50.658;4.608;2022-07-29T15:28:31;7.60;;;7.07;;
71296;SDS011;59082;50.658;4.608;2022-07-29T15:30:57;8.15;;;6.25;;
71296;SDS011;59082;50.658;4.608;2022-07-29T15:33:22;6.30;;;5.80;;
71296;SDS011;59082;50.658;4.608;2022-07-29T15:35:48;6.15;;;5.75;;
71296;SDS011;59082;50.658;4.608;2022-07-29T15:38:14;5.97;;;5.43;;
71296;SDS011;59082;50.658;4.608;2022-07-29T15:40:40;5.32;;;4.82;;
71296;SDS011;59082;50.658;4.608;2022-07-29T15:43:08;5.07;;;4.68;;
71296;SDS011;59082;50.658;4.608;2022-07-29T15:45:37;5.90;;;4.50;;
71296;SDS011;59082;50.658;4.608;2022-07-29T15:48:05;5.03;;;4.53;;